sensor_id;sensor_type;location;lat;lon;timestamp;pressure;altitude;pressure_sealevel;temperature;humidity
11448;BME280;43755;49.736;8.734;2023-10-19T00:01:39;96106.94;;;13.04;100.00
11448;BME280;43755;49.736;8.734;2023-10-19T00:03:41;96107.78;;;13.05;100.00
11448;BME280;43755;49.736;8.734;2023-10-19T00:05:41;96099.47;;;12.98;100.00
11448;BME280;43755;49.736;8.734;2023-10-19T00:07:43;96102.84;;;13.00;100.00
11448;BME280;43755;49.736;8.734;2023-10-19T00:09:46;96102.00;;;13.00;100.00
11448;BME280;43755;49.736;8.734;2023-10-19T00:11:52;96095.72;;;13.01;100.00
11448;BME280;43755;49.736;8.734;2023-10-19T00:13:53;96098.75;;;12.96;100.00
11448;BME280;43755;49.736;8.734;2023-10-19T00:15:56;96100.59;;;12.96;100.00
11448;BME280;43755;49.736;8.734;2023-10-19T00:17:58;96095.97;;;12.98;100.00
11448;BME280;43755;49.736;8.734;2023-10-19T00:20:09;96095.59;;;13.02;100.00
11448;BME280;43755;49.736;8.734;2023-10-19T00:22:25;96091.84;;;13.05;100.00
11448;BME280;43755;49.736;8.734;2023-10-19T00:24:29;96092.34;;;12.99;100.00
11448;BME280;43755;49.736;8.734;2023-10-19T00:26:31;96105.75;;;12.97;100.00
11448;BME280;43755;49.736;8.734;2023-10-19T00:28:33;96100.44;;;12.97;100.00
11448;BME280;43755;49.736;8.734;2023-10-19T00:30:35;96100.03;;;13.02;100.00
11448;BME280;43755;49.736;8.734;2023-10-19T00:32:38;96096.47;;;12.92;100.00
11448;BME280;43755;49.736;8.734;2023-10-19T00:34:39;96102.75;;;12.91;100.00
11448;BME280;43755;49.736;8.734;2023-10-19T00:36:40;96106.13;;;12.93;100.00
11448;BME280;43755;49.736;8.734;2023-10-19T00:38:42;96107.84;;;12.83;100.00
11448;BME280;43755;49.736;8.734;2023-10-19T00:40:51;96114.13;;;12.82;100.00
11448;BME280;43755;49.736;8.734;2023-10-19T00:42:53;96101.72;;;12.71;100.00
11448;BME280;43755;49.736;8.734;2023-10-19T00:44:55;96104.63;;;12.68;100.00
11448;BME280;43755;49.736;8.734;2023-10-19T00:47:04;96101.59;;;12.72;100.00
11448;BME280;43755;49.736;8.734;2023-10-19T00:49:14;96098.25;;;12.70;100.00
11448;BME280;43755;49.736;8.734;2023-10-19T00:51:16;96094.28;;;12.65;100.00
11448;BME280;43755;49.736;8.734;2023-10-19T00:53:30;96101.13;;;12.67;100.00
11448;BME280;43755;49.736;8.734;2023-10-19T00:55:32;96099.19;;;12.69;100.00
11448;BME280;43755;49.736;8.734;2023-10-19T00:57:35;96088.09;;;12.76;100.00
11448;BME280;43755;49.736;8.734;2023-10-19T00:59:38;96083.13;;;12.82;100.00
11448;BME280;43755;49.736;8.734;2023-10-19T01:01:44;96097.09;;;12.84;100.00
11448;BME280;43755;49.736;8.734;2023-10-19T01:03:48;96086.38;;;12.86;100.00
11448;BME280;43755;49.736;8.734;2023-10-19T01:05:54;96091.78;;;12.84;100.00
11448;BME280;43755;49.736;8.734;2023-10-19T01:07:54;96086.81;;;12.91;100.00
11448;BME280;43755;49.736;8.734;2023-10-19T01:09:58;96092.97;;;12.91;100.00
11448;BME280;43755;49.736;8.734;2023-10-19T01:12:00;96081.66;;;12.89;100.00
11448;BME280;43755;49.736;8.734;2023-10-19T01:14:18;96079.72;;;12.91;100.00
11448;BME280;43755;49.736;8.734;2023-10-19T01:16:20;96076.69;;;12.96;100.00
11448;BME280;43755;49.736;8.734;2023-10-19T01:18:22;96073.16;;;13.06;100.00
11448;BME280;43755;49.736;8.734;2023-10-19T01:20:31;96076.03;;;13.15;100.00
11448;BME280;43755;49.736;8.734;2023-10-19T01:22:51;96067.22;;;13.14;100.00
11448;BME280;43755;49.736;8.734;2023-10-19T01:25:06;96069.22;;;13.22;100.00
11448;BME280;43755;49.736;8.734;2023-10-19T01:27:10;96055.97;;;13.22;100.00
11448;BME280;43755;49.736;8.734;2023-10-19T01:29:14;96063.41;;;13.28;100.00
11448;BME280;43755;49.736;8.734;2023-10-19T01:31:18;96056.88;;;13.32;100.00
11448;BME280;43755;49.736;8.734;2023-10-19T01:33:31;96058.44;;;13.34;100.00
11448;BME280;43755;49.736;8.734;2023-10-19T01:35:34;96062.06;;;13.33;100.00
11448;BME280;43755;49.736;8.734;2023-10-19T01:37:51;96063.22;;;13.40;100.00
11448;BME280;43755;49.736;8.734;2023-10-19T01:39:52;96057.28;;;13.48;100.00
11448;BME280;43755;49.736;8.734;2023-10-19T01:41:52;96064.00;;;13.52;100.00
11448;BME280;43755;49.736;8.734;2023-10-19T01:43:54;96056.03;;;13.52;100.00
11448;BME280;43755;49.736;8.734;2023-10-19T01:45:55;96063.03;;;13.53;100.00
11448;BME280;43755;49.736;8.734;2023-10-19T01:47:56;96050.72;;;13.52;100.00
11448;BME280;43755;49.736;8.734;2023-10-19T01:50:00;96058.41;;;13.55;100.00
11448;BME280;43755;49.736;8.734;2023-10-19T01:52:03;96051.81;;;13.49;100.00
11448;BME280;43755;49.736;8.734;2023-10-19T01:54:06;96051.44;;;13.54;100.00
11448;BME280;43755;49.736;8.734;2023-10-19T01:56:07;96043.59;;;13.52;100.00
11448;BME280;43755;49.736;8.734;2023-10-19T01:58:09;96045.81;;;13.47;100.00
11448;BME280;43755;49.736;8.734;2023-10-19T02:00:12;96034.34;;;13.47;100.00
11448;BME280;43755;49.736;8.734;2023-10-19T02:02:17;96041.19;;;13.49;100.00
11448;BME280;43755;49.736;8.734;2023-10-19T02:04:21;96039.69;;;13.57;100.00
11448;BME280;43755;49.736;8.734;2023-10-19T02:06:22;96031.59;;;13.58;100.00
11448;BME280;43755;49.736;8.734;2023-10-19T02:08:26;96034.13;;;13.60;100.00
11448;BME280;43755;49.736;8.734;2023-10-19T02:10:28;96031.78;;;13.66;100.00
11448;BME280;43755;49.736;8.734;2023-10-19T02:12:32;96030.09;;;13.65;100.00
11448;BME280;43755;49.736;8.734;2023-10-19T02:14:34;96027.44;;;13.65;100.00
11448;BME280;43755;49.736;8.734;2023-10-19T02:16:37;96023.00;;;13.75;100.00
11448;BME280;43755;49.736;8.734;2023-10-19T02:18:39;96031.84;;;13.76;100.00
11448;BME280;43755;49.736;8.734;2023-10-19T02:20:40;96023.56;;;13.79;100.00
11448;BME280;43755;49.736;8.734;2023-10-19T02:22:41;96020.22;;;13.77;100.00
11448;BME280;43755;49.736;8.734;2023-10-19T02:24:42;96017.69;;;13.75;100.00
11448;BME280;43755;49.736;8.734;2023-10-19T02:26:45;96016.84;;;13.75;100.00
11448;BME280;43755;49.736;8.734;2023-10-19T02:28:47;96016.13;;;13.73;100.00
11448;BME280;43755;49.736;8.734;2023-10-19T02:30:50;96003.56;;;13.75;100.00
11448;BME280;43755;49.736;8.734;2023-10-19T02:32:52;96006.50;;;13.72;100.00
11448;BME280;43755;49.736;8.734;2023-10-19T02:34:53;96010.81;;;13.73;100.00
11448;BME280;43755;49.736;8.734;2023-10-19T02:36:57;96013.88;;;13.68;100.00
11448;BME280;43755;49.736;8.734;2023-10-19T02:38:59;96017.50;;;13.67;100.00
11448;BME280;43755;49.736;8.734;2023-10-19T02:41:01;96005.22;;;13.66;100.00
11448;BME280;43755;49.736;8.734;2023-10-19T02:43:04;96008.53;;;13.59;100.00
11448;BME280;43755;49.736;8.734;2023-10-19T02:45:07;96013.13;;;13.57;100.00
11448;BME280;43755;49.736;8.734;2023-10-19T02:47:08;96016.75;;;13.56;100.00
11448;BME280;43755;49.736;8.734;2023-10-19T02:49:11;96006.72;;;13.59;100.00
11448;BME280;43755;49.736;8.734;2023-10-19T02:51:13;96005.75;;;13.60;100.00
11448;BME280;43755;49.736;8.734;2023-10-19T02:53:14;96001.13;;;13.62;100.00
11448;BME280;43755;49.736;8.734;2023-10-19T02:55:15;95998.63;;;13.61;100.00
11448;BME280;43755;49.736;8.734;2023-10-19T02:57:17;96000.28;;;13.62;100.00
11448;BME280;43755;49.736;8.734;2023-10-19T02:59:22;95984.50;;;13.60;100.00
11448;BME280;43755;49.736;8.734;2023-10-19T03:01:23;95988.00;;;13.61;100.00
11448;BME280;43755;49.736;8.734;2023-10-19T03:03:25;95989.50;;;13.53;100.00
11448;BME280;43755;49.736;8.734;2023-10-19T03:05:26;95989.34;;;13.55;100.00
11448;BME280;43755;49.736;8.734;2023-10-19T03:07:27;95991.75;;;13.58;100.00
11448;BME280;43755;49.736;8.734;2023-10-19T03:09:29;95991.03;;;13.56;100.00
11448;BME280;43755;49.736;8.734;2023-10-19T03:11:30;95987.69;;;13.54;100.00
11448;BME280;43755;49.736;8.734;2023-10-19T03:13:32;95992.16;;;13.53;100.00
11448;BME280;43755;49.736;8.734;2023-10-19T03:15:34;95985.41;;;13.49;100.00
11448;BME280;43755;49.736;8.734;2023-10-19T03:17:39;95992.72;;;13.57;100.00
11448;BME280;43755;49.736;8.734;2023-10-19T03:19:40;95988.53;;;13.55;100.00
11448;BME280;43755;49.736;8.734;2023-10-19T03:21:42;95997.59;;;13.52;100.00
11448;BME280;43755;49.736;8.734;2023-10-19T03:23:43;95995.06;;;13.50;100.00
11448;BME280;43755;49.736;8.734;2023-10-19T03:25:44;95978.56;;;13.47;100.00
11448;BME280;43755;49.736;8.734;2023-10-19T03:28:09;95990.16;;;13.46;100.00
11448;BME280;43755;49.736;8.734;2023-10-19T03:30:12;95987.38;;;13.47;100.00
11448;BME280;43755;49.736;8.734;2023-10-19T03:32:17;95976.88;;;13.46;100.00
11448;BME280;43755;49.736;8.734;2023-10-19T03:34:22;95972.53;;;13.45;100.00
11448;BME280;43755;49.736;8.734;2023-10-19T03:36:25;95972.94;;;13.40;100.00
11448;BME280;43755;49.736;8.734;2023-10-19T03:38:26;95972.94;;;13.40;100.00
11448;BME280;43755;49.736;8.734;2023-10-19T03:40:31;95972.38;;;13.37;100.00
11448;BME280;43755;49.736;8.734;2023-10-19T03:42:34;95974.19;;;13.36;100.00
11448;BME280;43755;49.736;8.734;2023-10-19T03:44:40;95973.44;;;13.34;100.00
11448;BME280;43755;49.736;8.734;2023-10-19T03:46:50;95974.31;;;13.35;100.00
11448;BME280;43755;49.736;8.734;2023-10-19T03:48:57;95976.34;;;13.31;100.00
11448;BME280;43755;49.736;8.734;2023-10-19T03:51:04;95973.13;;;13.28;100.00
11448;BME280;43755;49.736;8.734;2023-10-19T03:53:05;95961.78;;;13.26;100.00
11448;BME280;43755;49.736;8.734;2023-10-19T03:55:08;95957.59;;;13.23;100.00
11448;BME280;43755;49.736;8.734;2023-10-19T03:57:16;95953.97;;;13.24;100.00
11448;BME280;43755;49.736;8.734;2023-10-19T03:59:20;95951.88;;;13.28;100.00
11448;BME280;43755;49.736;8.734;2023-10-19T04:01:21;95946.59;;;13.28;100.00
11448;BME280;43755;49.736;8.734;2023-10-19T04:03:23;95947.31;;;13.30;100.00
11448;BME280;43755;49.736;8.734;2023-10-19T04:05:26;95952.16;;;13.25;100.00
11448;BME280;43755;49.736;8.734;2023-10-19T04:07:28;95958.16;;;13.27;100.00
11448;BME280;43755;49.736;8.734;2023-10-19T04:09:31;95959.00;;;13.27;100.00
11448;BME280;43755;49.736;8.734;2023-10-19T04:11:32;95948.53;;;13.26;100.00
11448;BME280;43755;49.736;8.734;2023-10-19T04:13:45;95945.69;;;13.18;100.00
11448;BME280;43755;49.736;8.734;2023-10-19T04:15:45;95945.28;;;13.22;100.00
11448;BME280;43755;49.736;8.734;2023-10-19T04:17:50;95931.78;;;13.25;100.00
11448;BME280;43755;49.736;8.734;2023-10-19T04:19:53;95935.25;;;13.26;100.00
11448;BME280;43755;49.736;8.734;2023-10-19T04:21:56;95933.88;;;13.31;100.00
11448;BME280;43755;49.736;8.734;2023-10-19T04:23:58;95941.16;;;13.29;100.00
11448;BME280;43755;49.736;8.734;2023-10-19T04:25:59;95942.13;;;13.28;100.00
11448;BME280;43755;49.736;8.734;2023-10-19T04:28:05;95933.59;;;13.25;100.00
11448;BME280;43755;49.736;8.734;2023-10-19T04:30:07;95927.56;;;13.23;100.00
11448;BME280;43755;49.736;8.734;2023-10-19T04:32:16;95927.44;;;13.24;100.00
11448;BME280;43755;49.736;8.734;2023-10-19T04:34:25;95929.81;;;13.27;100.00
11448;BME280;43755;49.736;8.734;2023-10-19T04:36:26;95925.91;;;13.31;100.00
11448;BME280;43755;49.736;8.734;2023-10-19T04:38:30;95925.75;;;13.23;100.00
11448;BME280;43755;49.736;8.734;2023-10-19T04:40:33;95924.47;;;13.18;100.00
11448;BME280;43755;49.736;8.734;2023-10-19T04:42:35;95919.28;;;13.16;100.00
11448;BME280;43755;49.736;8.734;2023-10-19T04:44:36;95923.63;;;13.17;100.00
11448;BME280;43755;49.736;8.734;2023-10-19T04:46:38;95923.03;;;13.13;100.00
11448;BME280;43755;49.736;8.734;2023-10-19T04:48:40;95927.16;;;13.27;100.00
11448;BME280;43755;49.736;8.734;2023-10-19T04:50:42;95927.50;;;13.13;100.00
11448;BME280;43755;49.736;8.734;2023-10-19T04:52:43;95929.41;;;13.11;100.00
11448;BME280;43755;49.736;8.734;2023-10-19T04:54:46;95932.59;;;13.05;100.00
11448;BME280;43755;49.736;8.734;2023-10-19T04:56:47;95936.81;;;13.07;100.00
11448;BME280;43755;49.736;8.734;2023-10-19T04:58:50;95934.00;;;13.09;100.00
11448;BME280;43755;49.736;8.734;2023-10-19T05:00:52;95935.13;;;13.06;100.00
11448;BME280;43755;49.736;8.734;2023-10-19T05:02:54;95931.75;;;13.04;100.00
11448;BME280;43755;49.736;8.734;2023-10-19T05:04:55;95922.81;;;13.05;100.00
11448;BME280;43755;49.736;8.734;2023-10-19T05:06:57;95925.34;;;13.07;100.00
11448;BME280;43755;49.736;8.734;2023-10-19T05:08:58;95921.44;;;13.11;100.00
11448;BME280;43755;49.736;8.734;2023-10-19T05:11:01;95920.25;;;13.15;100.00
11448;BME280;43755;49.736;8.734;2023-10-19T05:13:03;95921.22;;;13.14;100.00
11448;BME280;43755;49.736;8.734;2023-10-19T05:15:05;95919.66;;;13.11;100.00
11448;BME280;43755;49.736;8.734;2023-10-19T05:17:07;95920.53;;;13.12;100.00
11448;BME280;43755;49.736;8.734;2023-10-19T05:19:09;95917.22;;;13.08;100.00
11448;BME280;43755;49.736;8.734;2023-10-19T05:21:10;95925.81;;;13.12;100.00
11448;BME280;43755;49.736;8.734;2023-10-19T05:23:12;95931.50;;;13.07;100.00
11448;BME280;43755;49.736;8.734;2023-10-19T05:25:14;95919.31;;;13.05;100.00
11448;BME280;43755;49.736;8.734;2023-10-19T05:27:17;95929.09;;;13.04;100.00
11448;BME280;43755;49.736;8.734;2023-10-19T05:29:20;95925.47;;;13.05;100.00
11448;BME280;43755;49.736;8.734;2023-10-19T05:31:21;95927.28;;;13.05;100.00
11448;BME280;43755;49.736;8.734;2023-10-19T05:33:22;95925.88;;;13.01;100.00
11448;BME280;43755;49.736;8.734;2023-10-19T05:35:25;95922.50;;;12.99;100.00
11448;BME280;43755;49.736;8.734;2023-10-19T05:37:27;95920.81;;;12.98;100.00
11448;BME280;43755;49.736;8.734;2023-10-19T05:39:29;95924.72;;;12.94;100.00
11448;BME280;43755;49.736;8.734;2023-10-19T05:41:31;95918.44;;;12.95;100.00
11448;BME280;43755;49.736;8.734;2023-10-19T05:43:35;95923.03;;;12.93;100.00
11448;BME280;43755;49.736;8.734;2023-10-19T05:45:37;95915.78;;;12.95;100.00
11448;BME280;43755;49.736;8.734;2023-10-19T05:47:38;95921.09;;;12.95;100.00
11448;BME280;43755;49.736;8.734;2023-10-19T05:49:40;95919.41;;;12.94;100.00
11448;BME280;43755;49.736;8.734;2023-10-19T05:51:41;95915.50;;;12.98;100.00
11448;BME280;43755;49.736;8.734;2023-10-19T05:53:44;95919.72;;;13.00;100.00
11448;BME280;43755;49.736;8.734;2023-10-19T05:55:45;95919.72;;;13.00;100.00
11448;BME280;43755;49.736;8.734;2023-10-19T05:57:47;95914.13;;;13.03;100.00
11448;BME280;43755;49.736;8.734;2023-10-19T05:59:49;95914.13;;;13.03;100.00
11448;BME280;43755;49.736;8.734;2023-10-19T06:01:50;95915.56;;;13.07;100.00
11448;BME280;43755;49.736;8.734;2023-10-19T06:03:52;95917.13;;;13.10;100.00
11448;BME280;43755;49.736;8.734;2023-10-19T06:05:53;95917.59;;;13.15;100.00
11448;BME280;43755;49.736;8.734;2023-10-19T06:07:56;95922.38;;;13.21;100.00
11448;BME280;43755;49.736;8.734;2023-10-19T06:09:57;95927.97;;;13.18;100.00
11448;BME280;43755;49.736;8.734;2023-10-19T06:12:01;95924.19;;;13.21;100.00
11448;BME280;43755;49.736;8.734;2023-10-19T06:14:03;95924.25;;;13.30;100.00
11448;BME280;43755;49.736;8.734;2023-10-19T06:16:08;95924.94;;;13.32;100.00
11448;BME280;43755;49.736;8.734;2023-10-19T06:18:09;95925.91;;;13.31;100.00
11448;BME280;43755;49.736;8.734;2023-10-19T06:20:12;95931.28;;;13.41;100.00
11448;BME280;43755;49.736;8.734;2023-10-19T06:22:23;95924.16;;;13.41;100.00
11448;BME280;43755;49.736;8.734;2023-10-19T06:24:25;95930.75;;;13.47;100.00
11448;BME280;43755;49.736;8.734;2023-10-19T06:26:26;95926.69;;;13.43;100.00
11448;BME280;43755;49.736;8.734;2023-10-19T06:28:28;95935.09;;;13.48;100.00
11448;BME280;43755;49.736;8.734;2023-10-19T06:30:33;95931.50;;;13.59;100.00
11448;BME280;43755;49.736;8.734;2023-10-19T06:32:36;95926.91;;;13.61;100.00
11448;BME280;43755;49.736;8.734;2023-10-19T06:34:37;95918.94;;;13.61;100.00
11448;BME280;43755;49.736;8.734;2023-10-19T06:36:38;95922.03;;;13.66;100.00
11448;BME280;43755;49.736;8.734;2023-10-19T06:38:40;95924.16;;;13.72;100.00
11448;BME280;43755;49.736;8.734;2023-10-19T06:40:42;95923.56;;;13.68;100.00
11448;BME280;43755;49.736;8.734;2023-10-19T06:42:43;95922.03;;;13.75;100.00
11448;BME280;43755;49.736;8.734;2023-10-19T06:44:45;95924.16;;;13.81;100.00
11448;BME280;43755;49.736;8.734;2023-10-19T06:46:45;95930.31;;;13.82;100.00
11448;BME280;43755;49.736;8.734;2023-10-19T06:48:48;95923.50;;;13.89;100.00
11448;BME280;43755;49.736;8.734;2023-10-19T06:50:51;95920.13;;;13.97;100.00
11448;BME280;43755;49.736;8.734;2023-10-19T06:52:52;95923.66;;;14.07;100.00
11448;BME280;43755;49.736;8.734;2023-10-19T06:54:55;95927.31;;;14.15;100.00
11448;BME280;43755;49.736;8.734;2023-10-19T06:56:55;95920.47;;;14.22;100.00
11448;BME280;43755;49.736;8.734;2023-10-19T06:58:57;95925.94;;;14.30;100.00
11448;BME280;43755;49.736;8.734;2023-10-19T07:00:58;95931.81;;;14.34;100.00
11448;BME280;43755;49.736;8.734;2023-10-19T07:03:00;95934.25;;;14.37;100.00
11448;BME280;43755;49.736;8.734;2023-10-19T07:05:05;95932.28;;;14.49;100.00
11448;BME280;43755;49.736;8.734;2023-10-19T07:07:10;95926.25;;;14.56;100.00
11448;BME280;43755;49.736;8.734;2023-10-19T07:09:11;95930.06;;;14.54;100.00
11448;BME280;43755;49.736;8.734;2023-10-19T07:11:13;95921.09;;;14.55;100.00
11448;BME280;43755;49.736;8.734;2023-10-19T07:13:14;95922.34;;;14.60;100.00
11448;BME280;43755;49.736;8.734;2023-10-19T07:15:16;95921.78;;;14.66;100.00
11448;BME280;43755;49.736;8.734;2023-10-19T07:17:19;95918.56;;;14.63;100.00
11448;BME280;43755;49.736;8.734;2023-10-19T07:19:20;95923.75;;;14.64;100.00
11448;BME280;43755;49.736;8.734;2023-10-19T07:21:23;95911.28;;;14.65;100.00
11448;BME280;43755;49.736;8.734;2023-10-19T07:23:25;95915.19;;;14.70;100.00
11448;BME280;43755;49.736;8.734;2023-10-19T07:25:28;95919.66;;;14.80;100.00
11448;BME280;43755;49.736;8.734;2023-10-19T07:27:31;95929.06;;;14.84;100.00
11448;BME280;43755;49.736;8.734;2023-10-19T07:29:32;95924.84;;;14.81;100.00
11448;BME280;43755;49.736;8.734;2023-10-19T07:31:33;95930.16;;;14.91;100.00
11448;BME280;43755;49.736;8.734;2023-10-19T07:33:35;95932.97;;;14.89;100.00
11448;BME280;43755;49.736;8.734;2023-10-19T07:35:38;95922.44;;;14.97;100.00
11448;BME280;43755;49.736;8.734;2023-10-19T07:37:43;95921.72;;;15.05;100.00
11448;BME280;43755;49.736;8.734;2023-10-19T07:39:46;95922.56;;;15.05;100.00
11448;BME280;43755;49.736;8.734;2023-10-19T07:41:47;95920.19;;;15.12;100.00
11448;BME280;43755;49.736;8.734;2023-10-19T07:43:49;95927.47;;;15.20;100.00
11448;BME280;43755;49.736;8.734;2023-10-19T07:45:50;95928.72;;;15.25;100.00
11448;BME280;43755;49.736;8.734;2023-10-19T07:47:52;95922.28;;;15.18;100.00
11448;BME280;43755;49.736;8.734;2023-10-19T07:49:53;95920.28;;;15.20;100.00
11448;BME280;43755;49.736;8.734;2023-10-19T07:51:56;95929.50;;;15.26;100.00
11448;BME280;43755;49.736;8.734;2023-10-19T07:54:00;95925.75;;;15.28;100.00
11448;BME280;43755;49.736;8.734;2023-10-19T07:56:01;95919.84;;;15.34;100.00
11448;BME280;43755;49.736;8.734;2023-10-19T07:58:03;95921.63;;;15.43;100.00
11448;BME280;43755;49.736;8.734;2023-10-19T08:00:06;95927.78;;;15.44;100.00
11448;BME280;43755;49.736;8.734;2023-10-19T08:02:08;95923.59;;;15.41;100.00
11448;BME280;43755;49.736;8.734;2023-10-19T08:04:10;95920.63;;;15.44;100.00
11448;BME280;43755;49.736;8.734;2023-10-19T08:06:12;95915.16;;;15.46;100.00
11448;BME280;43755;49.736;8.734;2023-10-19T08:08:14;95905.50;;;15.45;100.00
11448;BME280;43755;49.736;8.734;2023-10-19T08:10:18;95910.84;;;15.54;100.00
11448;BME280;43755;49.736;8.734;2023-10-19T08:12:20;95913.88;;;15.50;100.00
11448;BME280;43755;49.736;8.734;2023-10-19T08:14:22;95910.69;;;15.46;100.00
11448;BME280;43755;49.736;8.734;2023-10-19T08:16:24;95914.47;;;15.53;100.00
11448;BME280;43755;49.736;8.734;2023-10-19T08:18:27;95916.72;;;15.48;100.00
11448;BME280;43755;49.736;8.734;2023-10-19T08:20:30;95919.94;;;15.52;100.00
11448;BME280;43755;49.736;8.734;2023-10-19T08:22:32;95927.06;;;15.61;100.00
11448;BME280;43755;49.736;8.734;2023-10-19T08:24:33;95921.31;;;15.66;100.00
11448;BME280;43755;49.736;8.734;2023-10-19T08:26:38;95926.63;;;15.66;100.00
11448;BME280;43755;49.736;8.734;2023-10-19T08:28:40;95918.78;;;15.64;100.00
11448;BME280;43755;49.736;8.734;2023-10-19T08:30:41;95929.25;;;15.75;100.00
11448;BME280;43755;49.736;8.734;2023-10-19T08:32:45;95932.03;;;15.83;100.00
11448;BME280;43755;49.736;8.734;2023-10-19T08:34:48;95920.81;;;15.80;100.00
11448;BME280;43755;49.736;8.734;2023-10-19T08:36:49;95932.88;;;15.74;100.00
11448;BME280;43755;49.736;8.734;2023-10-19T08:38:52;95934.53;;;15.85;100.00
11448;BME280;43755;49.736;8.734;2023-10-19T08:40:54;95926.38;;;15.86;100.00
11448;BME280;43755;49.736;8.734;2023-10-19T08:42:57;95919.34;;;15.95;100.00
11448;BME280;43755;49.736;8.734;2023-10-19T08:44:59;95908.59;;;16.05;100.00
11448;BME280;43755;49.736;8.734;2023-10-19T08:47:00;95913.13;;;16.22;100.00
11448;BME280;43755;49.736;8.734;2023-10-19T08:49:03;95905.34;;;16.28;100.00
11448;BME280;43755;49.736;8.734;2023-10-19T08:51:09;95906.22;;;16.47;100.00
11448;BME280;43755;49.736;8.734;2023-10-19T08:53:11;95894.31;;;16.59;100.00
11448;BME280;43755;49.736;8.734;2023-10-19T08:55:14;95896.09;;;16.68;100.00
11448;BME280;43755;49.736;8.734;2023-10-19T08:57:16;95902.72;;;16.82;100.00
11448;BME280;43755;49.736;8.734;2023-10-19T08:59:20;95908.66;;;16.93;100.00
11448;BME280;43755;49.736;8.734;2023-10-19T09:01:21;95907.28;;;16.89;100.00
11448;BME280;43755;49.736;8.734;2023-10-19T09:03:24;95906.81;;;16.94;100.00
11448;BME280;43755;49.736;8.734;2023-10-19T09:05:26;95899.88;;;17.01;100.00
11448;BME280;43755;49.736;8.734;2023-10-19T09:07:28;95902.00;;;16.97;100.00
11448;BME280;43755;49.736;8.734;2023-10-19T09:09:31;95898.69;;;17.03;100.00
11448;BME280;43755;49.736;8.734;2023-10-19T09:11:33;95899.91;;;17.09;100.00
11448;BME280;43755;49.736;8.734;2023-10-19T09:13:45;95895.25;;;17.11;100.00
11448;BME280;43755;49.736;8.734;2023-10-19T09:15:49;95888.31;;;17.18;100.00
11448;BME280;43755;49.736;8.734;2023-10-19T09:17:53;95888.31;;;17.18;100.00
11448;BME280;43755;49.736;8.734;2023-10-19T09:19:55;95883.44;;;17.13;100.00
11448;BME280;43755;49.736;8.734;2023-10-19T09:21:56;95879.09;;;17.12;100.00
11448;BME280;43755;49.736;8.734;2023-10-19T09:23:58;95884.09;;;17.15;100.00
11448;BME280;43755;49.736;8.734;2023-10-19T09:26:01;95879.97;;;17.21;100.00
11448;BME280;43755;49.736;8.734;2023-10-19T09:28:04;95879.31;;;17.27;100.00
11448;BME280;43755;49.736;8.734;2023-10-19T09:30:08;95882.06;;;17.35;100.00
11448;BME280;43755;49.736;8.734;2023-10-19T09:32:11;95892.03;;;17.25;100.00
11448;BME280;43755;49.736;8.734;2023-10-19T09:34:14;95887.19;;;17.29;100.00
11448;BME280;43755;49.736;8.734;2023-10-19T09:36:18;95882.75;;;17.37;100.00
11448;BME280;43755;49.736;8.734;2023-10-19T09:38:20;95884.66;;;17.53;100.00
11448;BME280;43755;49.736;8.734;2023-10-19T09:40:22;95883.81;;;17.52;100.00
11448;BME280;43755;49.736;8.734;2023-10-19T09:42:25;95879.81;;;17.56;100.00
11448;BME280;43755;49.736;8.734;2023-10-19T09:44:29;95870.66;;;17.59;100.00
11448;BME280;43755;49.736;8.734;2023-10-19T09:46:37;95871.41;;;17.69;100.00
11448;BME280;43755;49.736;8.734;2023-10-19T09:48:41;95869.13;;;17.82;100.00
11448;BME280;43755;49.736;8.734;2023-10-19T09:50:44;95865.16;;;17.94;100.00
11448;BME280;43755;49.736;8.734;2023-10-19T09:52:49;95863.97;;;17.97;100.00
11448;BME280;43755;49.736;8.734;2023-10-19T09:54:56;95862.84;;;18.16;100.00
11448;BME280;43755;49.736;8.734;2023-10-19T09:57:03;95866.91;;;18.28;100.00
11448;BME280;43755;49.736;8.734;2023-10-19T09:59:06;95864.06;;;18.29;100.00
11448;BME280;43755;49.736;8.734;2023-10-19T10:01:13;95854.72;;;18.41;100.00
11448;BME280;43755;49.736;8.734;2023-10-19T10:03:44;95866.66;;;18.55;100.00
11448;BME280;43755;49.736;8.734;2023-10-19T10:05:46;95860.09;;;18.74;100.00
11448;BME280;43755;49.736;8.734;2023-10-19T10:08:30;95858.97;;;18.85;100.00
11448;BME280;43755;49.736;8.734;2023-10-19T10:10:32;95861.97;;;18.90;100.00
11448;BME280;43755;49.736;8.734;2023-10-19T10:12:33;95861.97;;;18.90;100.00
11448;BME280;43755;49.736;8.734;2023-10-19T10:14:35;95864.94;;;19.03;100.00
11448;BME280;43755;49.736;8.734;2023-10-19T10:16:38;95866.47;;;19.13;100.00
11448;BME280;43755;49.736;8.734;2023-10-19T10:18:40;95853.56;;;19.17;100.00
11448;BME280;43755;49.736;8.734;2023-10-19T10:20:42;95860.75;;;19.25;100.00
11448;BME280;43755;49.736;8.734;2023-10-19T10:22:44;95866.44;;;19.30;100.00
11448;BME280;43755;49.736;8.734;2023-10-19T10:24:46;95867.28;;;19.30;100.00
11448;BME280;43755;49.736;8.734;2023-10-19T10:26:58;95862.22;;;19.51;100.00
11448;BME280;43755;49.736;8.734;2023-10-19T10:29:11;95863.38;;;19.57;100.00
11448;BME280;43755;49.736;8.734;2023-10-19T10:31:18;95859.38;;;19.53;100.00
11448;BME280;43755;49.736;8.734;2023-10-19T10:33:38;95866.88;;;19.57;100.00
11448;BME280;43755;49.736;8.734;2023-10-19T10:35:56;95858.28;;;19.70;100.00
11448;BME280;43755;49.736;8.734;2023-10-19T10:37:58;95848.69;;;19.84;100.00
11448;BME280;43755;49.736;8.734;2023-10-19T10:39:59;95864.72;;;20.00;100.00
11448;BME280;43755;49.736;8.734;2023-10-19T10:42:03;95857.19;;;19.95;100.00
11448;BME280;43755;49.736;8.734;2023-10-19T10:44:05;95854.69;;;19.86;100.00
11448;BME280;43755;49.736;8.734;2023-10-19T10:46:06;95859.13;;;19.71;100.00